createdAt,value
2018-06-30T00:01:49.920Z,100.00
2018-06-30T00:04:20.188Z,100.00
2018-06-30T00:06:50.180Z,100.00
2018-06-30T00:09:20.353Z,100.00
2018-06-30T00:11:50.556Z,100.00
2018-06-30T00:14:20.603Z,100.00
2018-06-30T00:16:50.490Z,100.00
2018-06-30T00:19:20.871Z,100.00
2018-06-30T00:21:51.385Z,100.00
2018-06-30T00:24:21.577Z,100.00
2018-06-30T00:26:55.610Z,100.00
2018-06-30T00:29:25.619Z,100.00
2018-06-30T00:31:55.533Z,100.00
2018-06-30T00:34:25.427Z,100.00
2018-06-30T00:36:55.444Z,100.00
2018-06-30T00:39:25.379Z,100.00
2018-06-30T00:41:55.604Z,100.00
2018-06-30T00:44:25.626Z,100.00
2018-06-30T00:46:55.776Z,100.00
2018-06-30T00:49:25.845Z,100.00
2018-06-30T00:51:55.725Z,100.00
2018-06-30T00:54:25.816Z,100.00
2018-06-30T00:56:55.812Z,100.00
2018-06-30T00:59:26.223Z,100.00
2018-06-30T01:01:56.188Z,100.00
2018-06-30T01:04:26.716Z,100.00
2018-06-30T01:06:57.176Z,100.00
2018-06-30T01:09:28.167Z,100.00
2018-06-30T01:11:58.143Z,100.00
2018-06-30T01:14:28.211Z,100.00
2018-06-30T01:16:58.385Z,100.00
2018-06-30T01:19:28.307Z,100.00
2018-06-30T01:21:58.311Z,100.00
2018-06-30T01:24:28.265Z,100.00
2018-06-30T01:26:58.620Z,100.00
2018-06-30T01:29:28.640Z,100.00
2018-06-30T01:31:58.619Z,100.00
2018-06-30T01:34:28.582Z,100.00
2018-06-30T01:36:58.493Z,100.00
2018-06-30T01:39:28.479Z,100.00
2018-06-30T01:41:58.374Z,100.00
2018-06-30T01:44:28.483Z,100.00
2018-06-30T01:46:58.907Z,100.00
2018-06-30T01:49:28.969Z,100.00
2018-06-30T01:51:58.936Z,100.00
2018-06-30T01:54:29.085Z,100.00
2018-06-30T01:56:58.985Z,100.00
2018-06-30T01:59:28.861Z,100.00
2018-06-30T02:01:59.196Z,100.00
2018-06-30T02:04:29.107Z,100.00
2018-06-30T02:06:58.957Z,100.00
2018-06-30T02:09:29.032Z,100.00
2018-06-30T02:11:59.115Z,100.00
2018-06-30T02:14:29.144Z,100.00
2018-06-30T02:16:59.105Z,100.00
2018-06-30T02:19:29.001Z,100.00
2018-06-30T02:21:58.941Z,100.00
2018-06-30T02:24:28.784Z,100.00
2018-06-30T02:26:58.993Z,100.00
2018-06-30T02:29:28.925Z,100.00
2018-06-30T02:31:58.849Z,100.00
2018-06-30T02:34:28.745Z,100.00
2018-06-30T02:36:58.692Z,100.00
2018-06-30T02:39:28.672Z,100.00
2018-06-30T02:41:58.557Z,100.00
2018-06-30T02:44:28.440Z,100.00
2018-06-30T02:46:58.820Z,100.00
2018-06-30T02:49:28.743Z,100.00
2018-06-30T02:51:59.060Z,100.00
2018-06-30T02:54:29.057Z,100.00
2018-06-30T02:56:59.131Z,100.00
2018-06-30T02:59:29.533Z,100.00
2018-06-30T03:01:59.437Z,100.00
2018-06-30T03:04:29.549Z,100.00
2018-06-30T03:06:59.502Z,100.00
2018-06-30T03:09:29.467Z,100.00
2018-06-30T03:11:59.417Z,100.00
2018-06-30T03:14:29.762Z,100.00
2018-06-30T03:16:59.948Z,100.00
2018-06-30T03:19:30.269Z,100.00
2018-06-30T03:22:00.134Z,100.00
2018-06-30T03:24:30.168Z,100.00
2018-06-30T03:27:00.397Z,100.00
2018-06-30T03:29:30.284Z,100.00
2018-06-30T03:32:00.178Z,100.00
2018-06-30T03:34:30.056Z,100.00
2018-06-30T03:36:59.908Z,100.00
2018-06-30T03:39:29.730Z,100.00
2018-06-30T03:41:59.607Z,100.00
2018-06-30T03:44:29.777Z,100.00
2018-06-30T03:46:59.900Z,100.00
2018-06-30T03:49:29.901Z,100.00
2018-06-30T03:51:59.789Z,100.00
2018-06-30T03:54:29.721Z,100.00
2018-06-30T03:56:59.633Z,100.00
2018-06-30T03:59:29.613Z,100.00
2018-06-30T04:01:59.786Z,100.00
2018-06-30T04:04:29.699Z,100.00
2018-06-30T04:06:59.649Z,100.00
2018-06-30T04:09:29.924Z,100.00
2018-06-30T04:11:59.893Z,100.00
2018-06-30T04:14:30.208Z,100.00
2018-06-30T04:17:00.117Z,100.00
2018-06-30T04:19:30.301Z,100.00
2018-06-30T04:22:00.146Z,100.00
2018-06-30T04:24:30.425Z,100.00
2018-06-30T04:27:00.492Z,100.00
2018-06-30T04:29:30.520Z,100.00
2018-06-30T04:32:00.480Z,100.00
2018-06-30T04:34:30.788Z,100.00
2018-06-30T04:37:00.841Z,100.00
2018-06-30T04:39:30.792Z,100.00
2018-06-30T04:42:00.785Z,100.00
2018-06-30T04:44:30.849Z,100.00
2018-06-30T04:47:00.940Z,100.00
2018-06-30T04:49:30.920Z,100.00
2018-06-30T04:52:01.014Z,100.00
2018-06-30T04:54:31.376Z,100.00
2018-06-30T04:57:01.351Z,100.00
2018-06-30T04:59:31.591Z,99.48
2018-06-30T05:02:01.677Z,100.00
2018-06-30T05:04:31.815Z,97.27
2018-06-30T05:07:01.732Z,99.04
2018-06-30T05:09:31.903Z,97.66
2018-06-30T05:12:02.776Z,97.18
2018-06-30T05:14:32.821Z,95.41
2018-06-30T05:17:02.910Z,94.63
2018-06-30T05:19:33.065Z,94.99
2018-06-30T05:22:03.080Z,98.92
2018-06-30T05:24:32.995Z,97.54
2018-06-30T05:27:03.369Z,98.20
2018-06-30T05:29:33.289Z,97.23
2018-06-30T05:32:03.191Z,97.39
2018-06-30T05:34:33.025Z,96.28
2018-06-30T05:37:02.956Z,94.35
2018-06-30T05:39:32.854Z,94.37
2018-06-30T05:42:02.845Z,92.59
2018-06-30T05:44:32.819Z,92.69
2018-06-30T05:47:02.935Z,91.24
2018-06-30T05:49:33.036Z,91.42
2018-06-30T05:52:02.928Z,90.35
2018-06-30T05:54:32.865Z,92.81
2018-06-30T05:57:02.912Z,92.15
2018-06-30T05:59:33.051Z,91.08
2018-06-30T06:02:03.259Z,89.67
2018-06-30T06:04:33.558Z,90.42
2018-06-30T06:07:03.938Z,89.93
2018-06-30T06:09:34.388Z,88.89
2018-06-30T06:12:04.431Z,86.64
2018-06-30T06:14:34.760Z,87.13
2018-06-30T06:17:04.971Z,85.38
2018-06-30T06:19:36.280Z,86.79
2018-06-30T06:22:07.533Z,87.41
2018-06-30T06:24:38.071Z,85.50
2018-06-30T06:27:08.319Z,84.88
2018-06-30T06:29:38.491Z,84.52
2018-06-30T06:32:09.076Z,84.99
2018-06-30T06:34:39.356Z,84.88
2018-06-30T06:37:09.699Z,84.63
2018-06-30T06:39:39.886Z,83.20
2018-06-30T06:42:10.168Z,81.56
2018-06-30T06:44:40.356Z,81.32
2018-06-30T06:47:11.059Z,82.09
2018-06-30T06:49:41.274Z,80.84
2018-06-30T06:52:11.819Z,79.48
2018-06-30T06:54:42.262Z,76.33
2018-06-30T06:57:12.536Z,77.91
2018-06-30T06:59:42.946Z,77.62
2018-06-30T07:02:13.220Z,76.76
2018-06-30T07:04:43.546Z,77.87
2018-06-30T07:07:14.190Z,78.98
2018-06-30T07:09:44.299Z,77.91
2018-06-30T07:12:14.512Z,78.21
2018-06-30T07:14:44.905Z,78.66
2018-06-30T07:17:15.072Z,77.15
2018-06-30T07:19:45.661Z,79.00
2018-06-30T07:22:15.968Z,77.87
2018-06-30T07:24:46.200Z,77.43
2018-06-30T07:27:16.705Z,77.54
2018-06-30T07:29:47.364Z,78.01
2018-06-30T07:32:17.676Z,75.77
2018-06-30T07:34:47.922Z,76.11
2018-06-30T07:37:18.189Z,75.34
2018-06-30T07:39:48.589Z,77.23
2018-06-30T07:42:18.960Z,75.67
2018-06-30T07:44:49.656Z,77.17
2018-06-30T07:47:20.409Z,74.80
2018-06-30T07:49:51.008Z,74.26
2018-06-30T07:52:21.220Z,74.52
2018-06-30T07:54:51.531Z,75.76
2018-06-30T07:57:21.676Z,75.03
2018-06-30T07:59:52.151Z,76.69
2018-06-30T08:02:22.302Z,77.11
2018-06-30T08:04:52.616Z,77.30
2018-06-30T08:07:22.828Z,78.48
2018-06-30T08:09:53.092Z,80.23
2018-06-30T08:12:23.268Z,80.29
2018-06-30T08:14:53.631Z,81.11
2018-06-30T08:17:23.908Z,80.96
2018-06-30T08:19:54.284Z,82.17
2018-06-30T08:22:24.507Z,81.58
2018-06-30T08:24:54.665Z,83.59
2018-06-30T08:27:25.089Z,85.56
2018-06-30T08:29:55.498Z,86.82
2018-06-30T08:32:25.825Z,87.81
2018-06-30T08:34:55.982Z,86.22
2018-06-30T08:37:26.290Z,88.20
2018-06-30T08:39:56.497Z,86.94
2018-06-30T08:42:26.814Z,87.83
2018-06-30T08:44:56.954Z,87.74
2018-06-30T08:47:27.480Z,90.07
2018-06-30T08:49:57.534Z,90.73
2018-06-30T08:52:27.665Z,91.58
2018-06-30T08:54:58.316Z,92.75
2018-06-30T08:57:28.377Z,94.97
2018-06-30T08:59:58.655Z,94.25
2018-06-30T09:02:28.794Z,96.19
2018-06-30T09:04:58.942Z,96.44
2018-06-30T09:07:29.204Z,96.40
2018-06-30T09:09:59.475Z,94.61
2018-06-30T09:12:29.830Z,93.71
2018-06-30T09:15:00.046Z,95.55
2018-06-30T09:17:30.575Z,94.37
2018-06-30T09:20:00.908Z,94.62
2018-06-30T09:22:31.257Z,92.93
2018-06-30T09:25:01.493Z,93.30
2018-06-30T09:27:31.861Z,94.86
2018-06-30T09:30:02.046Z,94.89
2018-06-30T09:32:32.503Z,96.83
2018-06-30T09:35:02.781Z,96.26
2018-06-30T09:37:33.449Z,97.06
2018-06-30T09:40:03.633Z,95.47
2018-06-30T09:42:39.480Z,95.60
2018-06-30T09:45:09.693Z,92.22
2018-06-30T09:47:40.259Z,92.30
2018-06-30T09:50:10.931Z,91.47
2018-06-30T09:52:41.325Z,88.72
2018-06-30T09:55:11.560Z,87.22
2018-06-30T09:57:42.094Z,87.06
2018-06-30T10:00:16.318Z,88.53
2018-06-30T10:02:46.792Z,87.78
2018-06-30T10:05:17.267Z,87.00
2018-06-30T10:07:47.992Z,88.87
2018-06-30T10:10:18.274Z,86.52
2018-06-30T10:12:48.879Z,87.38
2018-06-30T10:15:19.134Z,86.33
2018-06-30T10:17:49.611Z,87.05
2018-06-30T10:20:19.847Z,86.48
2018-06-30T10:22:50.229Z,86.00
2018-06-30T10:25:20.514Z,87.94
2018-06-30T10:27:50.793Z,88.07
2018-06-30T10:30:21.084Z,86.67
2018-06-30T10:32:51.425Z,86.22
2018-06-30T10:35:21.708Z,84.98
2018-06-30T10:37:52.136Z,87.26
2018-06-30T10:40:22.848Z,84.90
2018-06-30T10:42:53.091Z,86.59
2018-06-30T10:45:23.302Z,86.12
2018-06-30T10:47:53.651Z,84.54
2018-06-30T10:50:23.997Z,85.70
2018-06-30T10:52:54.612Z,85.01
2018-06-30T10:55:26.000Z,85.19
2018-06-30T10:57:56.496Z,84.01
2018-06-30T11:00:27.253Z,86.30
2018-06-30T11:02:57.393Z,86.58
2018-06-30T11:05:27.817Z,86.50
2018-06-30T11:07:57.856Z,86.15
2018-06-30T11:10:28.372Z,83.26
2018-06-30T11:12:58.800Z,81.74
2018-06-30T11:15:28.924Z,82.73
2018-06-30T11:17:59.188Z,84.10
2018-06-30T11:20:29.976Z,84.79
2018-06-30T11:23:00.139Z,83.63
2018-06-30T11:25:30.546Z,84.86
2018-06-30T11:28:00.835Z,84.19
2018-06-30T11:30:31.341Z,82.60
2018-06-30T11:33:01.647Z,82.23
2018-06-30T11:35:32.008Z,81.28
2018-06-30T11:38:02.328Z,82.03
2018-06-30T11:40:32.670Z,81.54
2018-06-30T11:43:03.007Z,79.95
2018-06-30T11:45:33.289Z,80.94
2018-06-30T11:48:03.940Z,80.30
2018-06-30T11:50:34.235Z,80.52
2018-06-30T11:53:04.645Z,78.97
2018-06-30T11:55:34.854Z,78.62
2018-06-30T11:58:05.108Z,78.45
2018-06-30T12:00:35.342Z,78.00
2018-06-30T12:03:06.022Z,78.79
2018-06-30T12:05:36.351Z,77.97
2018-06-30T12:08:06.758Z,78.42
2018-06-30T12:10:37.326Z,77.23
2018-06-30T12:13:07.666Z,77.34
2018-06-30T12:15:38.019Z,78.13
2018-06-30T12:18:08.609Z,76.44
2018-06-30T12:20:38.929Z,76.17
2018-06-30T12:23:09.147Z,75.33
2018-06-30T12:25:39.497Z,75.06
2018-06-30T12:28:09.714Z,74.42
2018-06-30T12:30:39.949Z,74.10
2018-06-30T12:33:10.126Z,75.11
2018-06-30T12:35:40.407Z,75.42
2018-06-30T12:38:10.598Z,74.56
2018-06-30T12:40:40.921Z,73.90
2018-06-30T12:43:11.060Z,75.82
2018-06-30T12:45:41.293Z,75.86
2018-06-30T12:48:11.889Z,79.38
2018-06-30T12:50:42.279Z,80.79
2018-06-30T12:53:12.523Z,86.76
2018-06-30T12:55:43.087Z,86.47
2018-06-30T12:58:13.493Z,84.24
2018-06-30T13:00:43.853Z,83.25
2018-06-30T13:03:13.991Z,81.89
2018-06-30T13:05:44.421Z,82.00
2018-06-30T13:08:15.135Z,79.99
2018-06-30T13:10:45.332Z,80.41
2018-06-30T13:13:15.623Z,77.76
2018-06-30T13:15:45.802Z,77.78
2018-06-30T13:18:16.251Z,73.34
2018-06-30T13:20:46.556Z,72.48
2018-06-30T13:23:17.232Z,73.79
2018-06-30T13:25:48.432Z,72.74
2018-06-30T13:28:18.888Z,73.44
2018-06-30T13:30:49.025Z,73.91
2018-06-30T13:33:19.313Z,76.21
2018-06-30T13:35:49.506Z,74.38
2018-06-30T13:38:19.985Z,71.85
2018-06-30T13:40:50.356Z,68.35
2018-06-30T13:43:20.799Z,66.13
2018-06-30T13:45:51.358Z,65.88
2018-06-30T13:48:22.220Z,67.12
2018-06-30T13:50:52.433Z,68.08
2018-06-30T13:53:22.936Z,69.82
2018-06-30T13:55:53.250Z,68.30
2018-06-30T13:58:23.437Z,70.21
2018-06-30T14:00:53.821Z,69.14
2018-06-30T14:03:24.137Z,67.56
2018-06-30T14:05:54.365Z,65.23
2018-06-30T14:08:24.441Z,70.50
2018-06-30T14:10:54.507Z,71.07
2018-06-30T14:13:24.641Z,68.96
2018-06-30T14:15:54.851Z,66.76
2018-06-30T14:18:25.075Z,67.85
2018-06-30T14:20:55.188Z,64.07
2018-06-30T14:23:25.497Z,60.54
2018-06-30T14:25:55.375Z,61.83
2018-06-30T14:28:25.388Z,58.58
2018-06-30T14:30:55.374Z,58.37
2018-06-30T14:33:25.376Z,58.26
2018-06-30T14:35:55.353Z,59.46
2018-06-30T14:38:25.380Z,58.80
2018-06-30T14:40:55.431Z,56.85
2018-06-30T14:43:25.603Z,57.49
2018-06-30T14:45:55.558Z,56.38
2018-06-30T14:48:26.557Z,60.56
2018-06-30T14:50:56.533Z,60.83
2018-06-30T14:53:26.668Z,61.65
2018-06-30T14:55:56.692Z,60.14
2018-06-30T14:58:26.842Z,61.32
2018-06-30T15:00:56.860Z,59.95
2018-06-30T15:03:26.923Z,61.19
2018-06-30T15:05:57.029Z,61.62
2018-06-30T15:08:27.156Z,64.04
2018-06-30T15:10:57.407Z,66.41
2018-06-30T15:13:27.524Z,68.48
2018-06-30T15:15:57.585Z,70.71
2018-06-30T15:18:27.761Z,70.43
2018-06-30T15:20:57.648Z,70.33
2018-06-30T15:23:27.810Z,69.84
2018-06-30T15:25:57.871Z,70.37
2018-06-30T15:28:28.139Z,70.80
2018-06-30T15:30:58.248Z,71.34
2018-06-30T15:33:28.278Z,73.01
2018-06-30T15:35:58.546Z,74.89
2018-06-30T15:38:28.768Z,73.99
2018-06-30T15:40:58.855Z,72.46
2018-06-30T15:43:28.856Z,74.68
2018-06-30T15:45:58.972Z,73.80
2018-06-30T15:48:29.225Z,74.72
2018-06-30T15:50:59.659Z,78.43
2018-06-30T15:53:29.681Z,84.77
2018-06-30T15:56:01.277Z,90.32
2018-06-30T15:58:31.303Z,93.06
2018-06-30T16:01:01.397Z,93.88
2018-06-30T16:03:31.857Z,94.49
2018-06-30T16:06:02.162Z,95.49
2018-06-30T16:08:32.378Z,94.09
2018-06-30T16:11:02.532Z,94.31
2018-06-30T16:13:32.596Z,94.52
2018-06-30T16:16:02.766Z,96.08
2018-06-30T16:18:32.820Z,92.03
2018-06-30T16:21:09.380Z,92.56
2018-06-30T16:23:39.331Z,90.92
2018-06-30T16:26:09.477Z,92.49
2018-06-30T16:28:39.696Z,92.95
2018-06-30T16:31:09.854Z,94.46
2018-06-30T16:33:39.840Z,94.26
2018-06-30T16:36:10.151Z,94.74
2018-06-30T16:38:40.271Z,94.49
2018-06-30T16:41:10.238Z,94.23
2018-06-30T16:43:40.582Z,91.90
2018-06-30T16:46:10.916Z,91.25
2018-06-30T16:48:41.401Z,90.71
2018-06-30T16:51:12.053Z,90.07
2018-06-30T16:53:42.220Z,90.14
2018-06-30T16:56:12.396Z,90.17
2018-06-30T16:58:42.834Z,92.11
2018-06-30T17:01:12.789Z,92.60
2018-06-30T17:03:42.888Z,90.65
2018-06-30T17:06:13.006Z,89.09
2018-06-30T17:08:43.283Z,88.91
2018-06-30T17:11:13.380Z,88.95
2018-06-30T17:13:43.392Z,87.80
2018-06-30T17:16:13.453Z,87.40
2018-06-30T17:18:43.463Z,87.55
2018-06-30T17:21:13.544Z,88.71
2018-06-30T17:23:43.561Z,89.72
2018-06-30T17:26:13.641Z,89.86
2018-06-30T17:28:43.933Z,90.22
2018-06-30T17:31:14.092Z,90.35
2018-06-30T17:33:44.111Z,91.14
2018-06-30T17:36:14.222Z,91.62
2018-06-30T17:38:44.552Z,93.04
2018-06-30T17:41:14.555Z,93.76
2018-06-30T17:43:44.928Z,93.82
2018-06-30T17:46:14.934Z,94.21
2018-06-30T17:48:45.385Z,94.96
2018-06-30T17:51:15.330Z,96.76
2018-06-30T17:53:45.502Z,96.65
2018-06-30T17:56:15.412Z,97.59
2018-06-30T17:58:45.529Z,98.47
2018-06-30T18:01:15.970Z,98.23
2018-06-30T18:03:46.161Z,97.94
2018-06-30T18:06:16.287Z,97.67
2018-06-30T18:08:46.399Z,97.78
2018-06-30T18:11:16.333Z,97.32
2018-06-30T18:13:46.463Z,98.10
2018-06-30T18:16:16.534Z,98.66
2018-06-30T18:18:46.804Z,97.91
2018-06-30T18:21:16.828Z,97.91
2018-06-30T18:23:47.093Z,97.04
2018-06-30T18:26:17.148Z,96.56
2018-06-30T18:28:47.516Z,96.08
2018-06-30T18:31:17.909Z,96.58
2018-06-30T18:33:48.260Z,97.04
2018-06-30T18:36:18.284Z,96.39
2018-06-30T18:38:48.653Z,95.88
2018-06-30T18:41:18.696Z,95.71
2018-06-30T18:43:48.837Z,96.12
2018-06-30T18:46:18.938Z,93.54
2018-06-30T18:48:49.515Z,95.06
2018-06-30T18:51:19.599Z,96.35
2018-06-30T18:53:49.723Z,95.56
2018-06-30T18:56:20.057Z,95.49
2018-06-30T18:58:50.216Z,96.08
2018-06-30T19:01:20.293Z,96.69
2018-06-30T19:03:50.305Z,97.37
2018-06-30T19:06:20.865Z,96.80
2018-06-30T19:08:50.840Z,97.87
2018-06-30T19:11:20.956Z,98.34
2018-06-30T19:13:51.114Z,98.68
2018-06-30T19:16:21.501Z,98.27
2018-06-30T19:18:51.503Z,99.14
2018-06-30T19:21:22.089Z,98.32
2018-06-30T19:23:52.179Z,97.81
2018-06-30T19:26:22.415Z,95.13
2018-06-30T19:28:52.590Z,96.21
2018-06-30T19:31:22.927Z,96.86
2018-06-30T19:33:53.045Z,99.62
2018-06-30T19:36:23.136Z,100.00
2018-06-30T19:38:53.310Z,100.00
2018-06-30T19:41:23.460Z,100.00
2018-06-30T19:43:53.557Z,100.00
2018-06-30T19:46:23.669Z,100.00
2018-06-30T19:48:53.650Z,100.00
2018-06-30T19:51:23.709Z,100.00
2018-06-30T19:53:54.109Z,100.00
2018-06-30T19:56:24.420Z,100.00
2018-06-30T19:58:54.763Z,100.00
2018-06-30T20:01:24.796Z,100.00
2018-06-30T20:03:54.888Z,100.00
2018-06-30T20:06:24.949Z,100.00
2018-06-30T20:08:55.043Z,100.00
2018-06-30T20:11:25.122Z,100.00
2018-06-30T20:13:55.212Z,100.00
2018-06-30T20:16:25.591Z,100.00
2018-06-30T20:18:55.695Z,100.00
2018-06-30T20:21:25.844Z,100.00
2018-06-30T20:23:56.356Z,100.00
2018-06-30T20:26:26.792Z,100.00
2018-06-30T20:28:56.809Z,100.00
2018-06-30T20:31:26.999Z,100.00
2018-06-30T20:33:57.232Z,100.00
2018-06-30T20:36:27.349Z,100.00
2018-06-30T20:38:57.373Z,100.00
2018-06-30T20:41:27.560Z,100.00
2018-06-30T20:43:57.541Z,100.00
2018-06-30T20:46:27.672Z,100.00
2018-06-30T20:48:57.902Z,100.00
2018-06-30T20:51:28.321Z,100.00
2018-06-30T20:53:58.376Z,100.00
2018-06-30T20:56:28.479Z,100.00
2018-06-30T20:58:58.508Z,100.00
2018-06-30T21:01:28.625Z,100.00
2018-06-30T21:03:58.636Z,100.00
2018-06-30T21:06:28.892Z,100.00
2018-06-30T21:08:58.892Z,100.00
2018-06-30T21:11:29.064Z,100.00
2018-06-30T21:13:59.096Z,100.00
2018-06-30T21:16:29.181Z,100.00
2018-06-30T21:18:59.149Z,100.00
2018-06-30T21:21:29.526Z,100.00
2018-06-30T21:23:59.504Z,100.00
2018-06-30T21:26:29.577Z,100.00
2018-06-30T21:28:59.476Z,100.00
2018-06-30T21:31:29.531Z,100.00
2018-06-30T21:33:59.760Z,100.00
2018-06-30T21:36:29.871Z,100.00
2018-06-30T21:39:00.185Z,100.00
2018-06-30T21:41:30.194Z,100.00
2018-06-30T21:44:00.224Z,100.00
2018-06-30T21:46:30.467Z,100.00
2018-06-30T21:49:00.728Z,100.00
2018-06-30T21:51:30.767Z,100.00
2018-06-30T21:54:00.843Z,100.00
2018-06-30T21:56:30.837Z,100.00
2018-06-30T21:59:01.281Z,100.00
2018-06-30T22:01:31.502Z,100.00
2018-06-30T22:04:01.670Z,100.00
2018-06-30T22:06:31.706Z,100.00
2018-06-30T22:09:01.763Z,100.00
2018-06-30T22:11:31.875Z,100.00
2018-06-30T22:14:01.877Z,100.00
2018-06-30T22:16:32.816Z,100.00
2018-06-30T22:19:02.764Z,100.00
2018-06-30T22:21:32.668Z,100.00
2018-06-30T22:24:02.605Z,100.00
2018-06-30T22:26:32.528Z,100.00
2018-06-30T22:29:02.369Z,100.00
2018-06-30T22:31:32.299Z,100.00
2018-06-30T22:34:02.427Z,100.00
2018-06-30T22:36:32.495Z,100.00
2018-06-30T22:39:02.536Z,100.00
2018-06-30T22:41:32.605Z,100.00
2018-06-30T22:44:02.466Z,100.00
2018-06-30T22:46:32.908Z,100.00
2018-06-30T22:49:02.761Z,100.00
2018-06-30T22:51:33.117Z,100.00
2018-06-30T22:54:02.978Z,100.00
2018-06-30T22:56:32.711Z,100.00
2018-06-30T22:59:02.713Z,100.00
2018-06-30T23:01:33.124Z,100.00
2018-06-30T23:04:03.307Z,100.00
2018-06-30T23:06:33.304Z,100.00
2018-06-30T23:09:03.711Z,100.00
2018-06-30T23:11:33.757Z,100.00
2018-06-30T23:14:04.152Z,100.00
2018-06-30T23:16:34.051Z,100.00
2018-06-30T23:19:04.293Z,100.00
2018-06-30T23:21:34.251Z,100.00
2018-06-30T23:24:04.720Z,100.00
2018-06-30T23:26:34.639Z,100.00
2018-06-30T23:29:04.836Z,100.00
2018-06-30T23:31:34.774Z,100.00
2018-06-30T23:34:04.760Z,100.00
2018-06-30T23:36:34.699Z,100.00
2018-06-30T23:39:07.269Z,100.00
2018-06-30T23:41:37.185Z,100.00
2018-06-30T23:44:07.439Z,100.00
2018-06-30T23:46:37.513Z,100.00
2018-06-30T23:49:07.462Z,100.00
2018-06-30T23:51:37.353Z,100.00
2018-06-30T23:54:07.351Z,100.00
2018-06-30T23:56:37.348Z,100.00
2018-06-30T23:59:07.352Z,100.00
